sensor_id;sensor_type;location;lat;lon;timestamp;P1;durP1;ratioP1;P2;durP2;ratioP2
16029;SDS011;34770;49.272;11.070;2023-07-29T00:00:32;3.20;;;2.90;;
16029;SDS011;34770;49.272;11.070;2023-07-29T00:02:57;4.85;;;2.60;;
16029;SDS011;34770;49.272;11.070;2023-07-29T00:05:23;4.20;;;3.00;;
16029;SDS011;34770;49.272;11.070;2023-07-29T00:07:48;2.97;;;2.63;;
16029;SDS011;34770;49.272;11.070;2023-07-29T00:10:13;4.63;;;3.45;;
16029;SDS011;34770;49.272;11.070;2023-07-29T00:12:39;3.35;;;2.85;;
16029;SDS011;34770;49.272;11.070;2023-07-29T00:15:04;3.47;;;3.05;;
16029;SDS011;34770;49.272;11.070;2023-07-29T00:17:30;5.68;;;2.72;;
16029;SDS011;34770;49.272;11.070;2023-07-29T00:19:55;3.70;;;3.15;;
16029;SDS011;34770;49.272;11.070;2023-07-29T00:22:21;5.00;;;2.90;;
16029;SDS011;34770;49.272;11.070;2023-07-29T00:24:51;4.82;;;2.92;;
16029;SDS011;34770;49.272;11.070;2023-07-29T00:27:18;3.95;;;2.85;;
16029;SDS011;34770;49.272;11.070;2023-07-29T00:29:43;3.25;;;2.50;;
16029;SDS011;34770;49.272;11.070;2023-07-29T00:32:09;3.83;;;3.10;;
16029;SDS011;34770;49.272;11.070;2023-07-29T00:34:34;3.83;;;3.10;;
16029;SDS011;34770;49.272;11.070;2023-07-29T00:36:59;3.95;;;3.22;;
16029;SDS011;34770;49.272;11.070;2023-07-29T00:39:25;5.93;;;3.72;;
16029;SDS011;34770;49.272;11.070;2023-07-29T00:41:50;6.25;;;3.85;;
16029;SDS011;34770;49.272;11.070;2023-07-29T00:44:16;3.95;;;3.55;;
16029;SDS011;34770;49.272;11.070;2023-07-29T00:46:41;3.88;;;3.53;;
16029;SDS011;34770;49.272;11.070;2023-07-29T00:49:08;3.97;;;3.53;;
16029;SDS011;34770;49.272;11.070;2023-07-29T00:51:33;4.97;;;3.65;;
16029;SDS011;34770;49.272;11.070;2023-07-29T00:53:58;4.40;;;3.08;;
16029;SDS011;34770;49.272;11.070;2023-07-29T00:56:24;4.10;;;3.70;;
16029;SDS011;34770;49.272;11.070;2023-07-29T00:58:49;4.65;;;3.15;;
16029;SDS011;34770;49.272;11.070;2023-07-29T01:01:16;6.40;;;3.92;;
16029;SDS011;34770;49.272;11.070;2023-07-29T01:03:42;4.35;;;3.95;;
16029;SDS011;34770;49.272;11.070;2023-07-29T01:08:53;3.35;;;2.95;;
16029;SDS011;34770;49.272;11.070;2023-07-29T01:11:48;3.58;;;3.28;;
16029;SDS011;34770;49.272;11.070;2023-07-29T01:14:30;5.43;;;3.40;;
16029;SDS011;34770;49.272;11.070;2023-07-29T01:17:04;4.75;;;3.53;;
16029;SDS011;34770;49.272;11.070;2023-07-29T01:22:34;5.28;;;3.92;;
16029;SDS011;34770;49.272;11.070;2023-07-29T01:25:00;4.28;;;3.72;;
16029;SDS011;34770;49.272;11.070;2023-07-29T01:27:26;6.10;;;3.65;;
16029;SDS011;34770;49.272;11.070;2023-07-29T01:29:52;4.00;;;3.60;;
16029;SDS011;34770;49.272;11.070;2023-07-29T01:32:30;4.10;;;3.50;;
16029;SDS011;34770;49.272;11.070;2023-07-29T01:37:55;3.97;;;3.63;;
16029;SDS011;34770;49.272;11.070;2023-07-29T01:40:31;5.18;;;3.78;;
16029;SDS011;34770;49.272;11.070;2023-07-29T01:42:58;4.75;;;3.45;;
16029;SDS011;34770;49.272;11.070;2023-07-29T01:45:24;4.10;;;3.67;;
16029;SDS011;34770;49.272;11.070;2023-07-29T01:47:52;4.38;;;3.20;;
16029;SDS011;34770;49.272;11.070;2023-07-29T01:50:18;5.30;;;3.45;;
16029;SDS011;34770;49.272;11.070;2023-07-29T01:52:43;5.57;;;3.88;;
16029;SDS011;34770;49.272;11.070;2023-07-29T01:55:08;3.72;;;3.40;;
16029;SDS011;34770;49.272;11.070;2023-07-29T01:57:34;4.03;;;3.47;;
16029;SDS011;34770;49.272;11.070;2023-07-29T01:59:59;3.85;;;2.92;;
16029;SDS011;34770;49.272;11.070;2023-07-29T02:02:25;6.05;;;3.25;;
16029;SDS011;34770;49.272;11.070;2023-07-29T02:04:50;5.07;;;3.72;;
16029;SDS011;34770;49.272;11.070;2023-07-29T02:07:17;4.35;;;3.53;;
16029;SDS011;34770;49.272;11.070;2023-07-29T02:09:44;4.03;;;2.60;;
16029;SDS011;34770;49.272;11.070;2023-07-29T02:12:09;5.80;;;3.28;;
16029;SDS011;34770;49.272;11.070;2023-07-29T02:14:34;4.07;;;2.92;;
16029;SDS011;34770;49.272;11.070;2023-07-29T02:17:00;4.18;;;3.58;;
16029;SDS011;34770;49.272;11.070;2023-07-29T02:19:25;3.45;;;3.15;;
16029;SDS011;34770;49.272;11.070;2023-07-29T02:21:50;3.40;;;3.10;;
16029;SDS011;34770;49.272;11.070;2023-07-29T02:24:16;4.75;;;3.58;;
16029;SDS011;34770;49.272;11.070;2023-07-29T02:26:41;4.13;;;2.85;;
16029;SDS011;34770;49.272;11.070;2023-07-29T02:29:07;4.00;;;3.60;;
16029;SDS011;34770;49.272;11.070;2023-07-29T02:31:32;3.83;;;3.53;;
16029;SDS011;34770;49.272;11.070;2023-07-29T02:33:59;5.43;;;3.33;;
16029;SDS011;34770;49.272;11.070;2023-07-29T02:36:25;3.42;;;3.13;;
16029;SDS011;34770;49.272;11.070;2023-07-29T02:38:50;8.80;;;3.67;;
16029;SDS011;34770;49.272;11.070;2023-07-29T02:41:15;6.00;;;3.72;;
16029;SDS011;34770;49.272;11.070;2023-07-29T02:43:42;4.30;;;3.33;;
16029;SDS011;34770;49.272;11.070;2023-07-29T02:46:08;4.40;;;4.00;;
16029;SDS011;34770;49.272;11.070;2023-07-29T02:48:33;5.53;;;3.78;;
16029;SDS011;34770;49.272;11.070;2023-07-29T02:50:59;4.43;;;3.42;;
16029;SDS011;34770;49.272;11.070;2023-07-29T02:53:24;6.78;;;4.78;;
16029;SDS011;34770;49.272;11.070;2023-07-29T02:55:50;4.40;;;3.55;;
16029;SDS011;34770;49.272;11.070;2023-07-29T02:58:15;3.65;;;3.20;;
16029;SDS011;34770;49.272;11.070;2023-07-29T03:00:41;6.43;;;3.67;;
16029;SDS011;34770;49.272;11.070;2023-07-29T03:03:09;3.85;;;3.30;;
16029;SDS011;34770;49.272;11.070;2023-07-29T03:05:35;7.10;;;3.97;;
16029;SDS011;34770;49.272;11.070;2023-07-29T03:08:00;4.90;;;3.97;;
16029;SDS011;34770;49.272;11.070;2023-07-29T03:10:25;5.25;;;4.10;;
16029;SDS011;34770;49.272;11.070;2023-07-29T03:12:53;5.68;;;4.55;;
16029;SDS011;34770;49.272;11.070;2023-07-29T03:15:22;4.93;;;4.43;;
16029;SDS011;34770;49.272;11.070;2023-07-29T03:17:48;8.95;;;4.63;;
16029;SDS011;34770;49.272;11.070;2023-07-29T03:20:14;4.82;;;4.32;;
16029;SDS011;34770;49.272;11.070;2023-07-29T03:22:39;7.93;;;4.35;;
16029;SDS011;34770;49.272;11.070;2023-07-29T03:25:05;6.53;;;4.88;;
16029;SDS011;34770;49.272;11.070;2023-07-29T03:27:31;4.60;;;4.20;;
16029;SDS011;34770;49.272;11.070;2023-07-29T03:29:56;4.57;;;4.18;;
16029;SDS011;34770;49.272;11.070;2023-07-29T03:32:21;4.60;;;4.20;;
16029;SDS011;34770;49.272;11.070;2023-07-29T03:34:47;5.82;;;4.20;;
16029;SDS011;34770;49.272;11.070;2023-07-29T03:37:13;4.30;;;3.90;;
16029;SDS011;34770;49.272;11.070;2023-07-29T03:39:38;7.05;;;4.45;;
16029;SDS011;34770;49.272;11.070;2023-07-29T03:42:04;4.65;;;4.05;;
16029;SDS011;34770;49.272;11.070;2023-07-29T03:44:29;5.28;;;4.00;;
16029;SDS011;34770;49.272;11.070;2023-07-29T03:46:56;6.65;;;3.85;;
16029;SDS011;34770;49.272;11.070;2023-07-29T03:49:21;7.15;;;3.97;;
16029;SDS011;34770;49.272;11.070;2023-07-29T03:51:46;4.75;;;3.83;;
16029;SDS011;34770;49.272;11.070;2023-07-29T03:54:12;4.13;;;3.72;;
16029;SDS011;34770;49.272;11.070;2023-07-29T03:56:37;4.65;;;3.97;;
16029;SDS011;34770;49.272;11.070;2023-07-29T03:59:03;4.88;;;4.05;;
16029;SDS011;34770;49.272;11.070;2023-07-29T04:01:29;5.35;;;4.13;;
16029;SDS011;34770;49.272;11.070;2023-07-29T04:03:55;4.32;;;3.92;;
16029;SDS011;34770;49.272;11.070;2023-07-29T04:06:20;6.43;;;4.30;;
16029;SDS011;34770;49.272;11.070;2023-07-29T04:08:46;6.07;;;4.05;;
16029;SDS011;34770;49.272;11.070;2023-07-29T04:11:11;4.65;;;4.25;;
16029;SDS011;34770;49.272;11.070;2023-07-29T04:13:37;5.47;;;3.97;;
16029;SDS011;34770;49.272;11.070;2023-07-29T04:16:03;5.65;;;4.07;;
16029;SDS011;34770;49.272;11.070;2023-07-29T04:18:29;4.78;;;4.15;;
16029;SDS011;34770;49.272;11.070;2023-07-29T04:20:54;4.15;;;3.33;;
16029;SDS011;34770;49.272;11.070;2023-07-29T04:23:19;5.30;;;3.65;;
16029;SDS011;34770;49.272;11.070;2023-07-29T04:25:45;5.70;;;4.30;;
16029;SDS011;34770;49.272;11.070;2023-07-29T04:28:10;4.60;;;3.67;;
16029;SDS011;34770;49.272;11.070;2023-07-29T04:30:35;3.90;;;3.60;;
16029;SDS011;34770;49.272;11.070;2023-07-29T04:33:01;6.47;;;4.20;;
16029;SDS011;34770;49.272;11.070;2023-07-29T04:35:26;4.43;;;4.00;;
16029;SDS011;34770;49.272;11.070;2023-07-29T04:37:51;3.78;;;3.35;;
16029;SDS011;34770;49.272;11.070;2023-07-29T04:40:17;4.38;;;3.50;;
16029;SDS011;34770;49.272;11.070;2023-07-29T04:42:43;4.60;;;3.55;;
16029;SDS011;34770;49.272;11.070;2023-07-29T04:45:08;3.83;;;3.45;;
16029;SDS011;34770;49.272;11.070;2023-07-29T04:47:33;6.13;;;2.97;;
16029;SDS011;34770;49.272;11.070;2023-07-29T04:49:59;4.68;;;3.80;;
16029;SDS011;34770;49.272;11.070;2023-07-29T04:52:24;6.28;;;4.00;;
16029;SDS011;34770;49.272;11.070;2023-07-29T04:54:50;4.82;;;3.28;;
16029;SDS011;34770;49.272;11.070;2023-07-29T04:57:15;3.67;;;3.22;;
16029;SDS011;34770;49.272;11.070;2023-07-29T04:59:41;3.35;;;3.05;;
16029;SDS011;34770;49.272;11.070;2023-07-29T05:02:06;3.35;;;2.80;;
16029;SDS011;34770;49.272;11.070;2023-07-29T05:04:32;5.57;;;3.25;;
16029;SDS011;34770;49.272;11.070;2023-07-29T05:06:57;3.40;;;3.05;;
16029;SDS011;34770;49.272;11.070;2023-07-29T05:09:23;5.63;;;3.17;;
16029;SDS011;34770;49.272;11.070;2023-07-29T05:11:48;2.90;;;2.70;;
16029;SDS011;34770;49.272;11.070;2023-07-29T05:14:14;3.65;;;2.78;;
16029;SDS011;34770;49.272;11.070;2023-07-29T05:16:40;4.10;;;2.28;;
16029;SDS011;34770;49.272;11.070;2023-07-29T05:19:06;3.80;;;2.80;;
16029;SDS011;34770;49.272;11.070;2023-07-29T05:21:31;3.03;;;2.25;;
16029;SDS011;34770;49.272;11.070;2023-07-29T05:23:56;3.00;;;2.70;;
16029;SDS011;34770;49.272;11.070;2023-07-29T05:26:22;3.85;;;2.35;;
16029;SDS011;34770;49.272;11.070;2023-07-29T05:28:48;3.65;;;3.13;;
16029;SDS011;34770;49.272;11.070;2023-07-29T05:31:13;4.50;;;3.00;;
16029;SDS011;34770;49.272;11.070;2023-07-29T05:33:38;3.10;;;2.80;;
16029;SDS011;34770;49.272;11.070;2023-07-29T05:36:04;7.40;;;2.78;;
16029;SDS011;34770;49.272;11.070;2023-07-29T05:38:30;4.35;;;2.58;;
16029;SDS011;34770;49.272;11.070;2023-07-29T05:40:55;3.25;;;2.70;;
16029;SDS011;34770;49.272;11.070;2023-07-29T05:43:21;4.05;;;3.65;;
16029;SDS011;34770;49.272;11.070;2023-07-29T05:45:46;4.22;;;3.17;;
16029;SDS011;34770;49.272;11.070;2023-07-29T05:48:12;3.08;;;2.70;;
16029;SDS011;34770;49.272;11.070;2023-07-29T05:50:37;3.35;;;2.97;;
16029;SDS011;34770;49.272;11.070;2023-07-29T05:53:02;3.08;;;2.80;;
16029;SDS011;34770;49.272;11.070;2023-07-29T05:55:28;4.00;;;3.60;;
16029;SDS011;34770;49.272;11.070;2023-07-29T05:57:54;4.25;;;3.55;;
16029;SDS011;34770;49.272;11.070;2023-07-29T06:00:20;4.07;;;3.28;;
16029;SDS011;34770;49.272;11.070;2023-07-29T06:02:45;6.70;;;3.67;;
16029;SDS011;34770;49.272;11.070;2023-07-29T06:05:11;4.10;;;3.28;;
16029;SDS011;34770;49.272;11.070;2023-07-29T06:07:36;6.72;;;3.78;;
16029;SDS011;34770;49.272;11.070;2023-07-29T06:10:01;6.07;;;4.35;;
16029;SDS011;34770;49.272;11.070;2023-07-29T06:12:27;5.50;;;3.80;;
16029;SDS011;34770;49.272;11.070;2023-07-29T06:14:52;6.43;;;4.25;;
16029;SDS011;34770;49.272;11.070;2023-07-29T06:17:18;7.00;;;4.43;;
16029;SDS011;34770;49.272;11.070;2023-07-29T06:19:43;3.75;;;3.45;;
16029;SDS011;34770;49.272;11.070;2023-07-29T06:22:09;5.47;;;3.88;;
16029;SDS011;34770;49.272;11.070;2023-07-29T06:24:35;4.50;;;4.10;;
16029;SDS011;34770;49.272;11.070;2023-07-29T06:27:00;8.75;;;4.68;;
16029;SDS011;34770;49.272;11.070;2023-07-29T06:29:26;4.28;;;3.83;;
16029;SDS011;34770;49.272;11.070;2023-07-29T06:31:51;6.75;;;5.63;;
16029;SDS011;34770;49.272;11.070;2023-07-29T06:34:17;5.88;;;4.68;;
16029;SDS011;34770;49.272;11.070;2023-07-29T06:36:43;5.45;;;4.95;;
16029;SDS011;34770;49.272;11.070;2023-07-29T06:39:09;11.32;;;4.88;;
16029;SDS011;34770;49.272;11.070;2023-07-29T06:41:34;7.47;;;4.30;;
16029;SDS011;34770;49.272;11.070;2023-07-29T06:44:00;5.57;;;4.82;;
16029;SDS011;34770;49.272;11.070;2023-07-29T06:46:25;6.38;;;4.90;;
16029;SDS011;34770;49.272;11.070;2023-07-29T06:48:51;7.70;;;4.65;;
16029;SDS011;34770;49.272;11.070;2023-07-29T06:51:16;7.70;;;3.83;;
16029;SDS011;34770;49.272;11.070;2023-07-29T06:53:41;4.85;;;4.40;;
16029;SDS011;34770;49.272;11.070;2023-07-29T06:56:07;4.55;;;4.13;;
16029;SDS011;34770;49.272;11.070;2023-07-29T06:58:32;4.80;;;4.20;;
16029;SDS011;34770;49.272;11.070;2023-07-29T07:00:58;4.70;;;3.97;;
16029;SDS011;34770;49.272;11.070;2023-07-29T07:03:23;5.20;;;4.70;;
16029;SDS011;34770;49.272;11.070;2023-07-29T07:05:48;5.43;;;4.30;;
16029;SDS011;34770;49.272;11.070;2023-07-29T07:08:14;5.38;;;4.35;;
16029;SDS011;34770;49.272;11.070;2023-07-29T07:10:40;5.13;;;4.63;;
16029;SDS011;34770;49.272;11.070;2023-07-29T07:13:05;4.78;;;3.95;;
16029;SDS011;34770;49.272;11.070;2023-07-29T07:15:30;7.65;;;4.50;;
16029;SDS011;34770;49.272;11.070;2023-07-29T07:17:56;6.30;;;5.03;;
16029;SDS011;34770;49.272;11.070;2023-07-29T07:20:22;5.10;;;4.53;;
16029;SDS011;34770;49.272;11.070;2023-07-29T07:22:47;6.75;;;5.05;;
16029;SDS011;34770;49.272;11.070;2023-07-29T07:25:12;4.65;;;4.25;;
16029;SDS011;34770;49.272;11.070;2023-07-29T07:27:38;4.70;;;4.28;;
16029;SDS011;34770;49.272;11.070;2023-07-29T07:30:03;5.32;;;4.82;;
16029;SDS011;34770;49.272;11.070;2023-07-29T07:32:29;8.35;;;4.78;;
16029;SDS011;34770;49.272;11.070;2023-07-29T07:34:54;7.82;;;4.80;;
16029;SDS011;34770;49.272;11.070;2023-07-29T07:37:20;6.05;;;5.13;;
16029;SDS011;34770;49.272;11.070;2023-07-29T07:39:45;6.80;;;4.90;;
16029;SDS011;34770;49.272;11.070;2023-07-29T07:42:11;6.53;;;5.07;;
16029;SDS011;34770;49.272;11.070;2023-07-29T07:44:36;5.38;;;4.88;;
16029;SDS011;34770;49.272;11.070;2023-07-29T07:47:01;6.38;;;5.30;;
16029;SDS011;34770;49.272;11.070;2023-07-29T07:49:27;5.78;;;4.78;;
16029;SDS011;34770;49.272;11.070;2023-07-29T07:51:52;7.25;;;5.22;;
16029;SDS011;34770;49.272;11.070;2023-07-29T07:54:17;6.03;;;4.70;;
16029;SDS011;34770;49.272;11.070;2023-07-29T07:56:43;7.55;;;3.88;;
16029;SDS011;34770;49.272;11.070;2023-07-29T07:59:08;5.55;;;4.90;;
16029;SDS011;34770;49.272;11.070;2023-07-29T08:01:37;6.45;;;3.85;;
16029;SDS011;34770;49.272;11.070;2023-07-29T08:04:04;5.82;;;4.82;;
16029;SDS011;34770;49.272;11.070;2023-07-29T08:06:30;7.25;;;5.38;;
16029;SDS011;34770;49.272;11.070;2023-07-29T08:08:56;7.75;;;4.50;;
16029;SDS011;34770;49.272;11.070;2023-07-29T08:11:21;6.18;;;4.65;;
16029;SDS011;34770;49.272;11.070;2023-07-29T08:13:47;5.30;;;4.43;;
16029;SDS011;34770;49.272;11.070;2023-07-29T08:16:12;5.10;;;4.43;;
16029;SDS011;34770;49.272;11.070;2023-07-29T08:18:38;4.38;;;3.92;;
16029;SDS011;34770;49.272;11.070;2023-07-29T08:21:03;4.63;;;3.97;;
16029;SDS011;34770;49.272;11.070;2023-07-29T08:23:29;4.53;;;4.13;;
16029;SDS011;34770;49.272;11.070;2023-07-29T08:25:56;4.53;;;4.10;;
16029;SDS011;34770;49.272;11.070;2023-07-29T08:28:26;5.85;;;4.18;;
16029;SDS011;34770;49.272;11.070;2023-07-29T08:30:53;3.75;;;3.30;;
16029;SDS011;34770;49.272;11.070;2023-07-29T08:33:18;6.55;;;4.13;;
16029;SDS011;34770;49.272;11.070;2023-07-29T08:35:43;3.55;;;3.25;;
16029;SDS011;34770;49.272;11.070;2023-07-29T08:38:09;4.18;;;3.78;;
16029;SDS011;34770;49.272;11.070;2023-07-29T08:40:34;5.15;;;3.75;;
16029;SDS011;34770;49.272;11.070;2023-07-29T08:43:03;4.82;;;3.95;;
16029;SDS011;34770;49.272;11.070;2023-07-29T08:45:34;5.00;;;3.42;;
16029;SDS011;34770;49.272;11.070;2023-07-29T08:48:02;5.00;;;3.55;;
16029;SDS011;34770;49.272;11.070;2023-07-29T08:50:29;5.63;;;3.53;;
16029;SDS011;34770;49.272;11.070;2023-07-29T08:52:56;3.83;;;3.50;;
16029;SDS011;34770;49.272;11.070;2023-07-29T08:55:23;4.07;;;3.67;;
16029;SDS011;34770;49.272;11.070;2023-07-29T08:57:48;3.55;;;3.13;;
16029;SDS011;34770;49.272;11.070;2023-07-29T09:00:14;4.57;;;3.60;;
16029;SDS011;34770;49.272;11.070;2023-07-29T09:02:40;4.07;;;3.70;;
16029;SDS011;34770;49.272;11.070;2023-07-29T09:05:05;4.60;;;3.38;;
16029;SDS011;34770;49.272;11.070;2023-07-29T09:07:31;3.95;;;3.58;;
16029;SDS011;34770;49.272;11.070;2023-07-29T09:09:59;4.18;;;3.72;;
16029;SDS011;34770;49.272;11.070;2023-07-29T09:12:24;3.33;;;3.03;;
16029;SDS011;34770;49.272;11.070;2023-07-29T09:14:52;4.68;;;3.35;;
16029;SDS011;34770;49.272;11.070;2023-07-29T09:17:19;3.85;;;3.55;;
16029;SDS011;34770;49.272;11.070;2023-07-29T09:19:48;3.63;;;3.15;;
16029;SDS011;34770;49.272;11.070;2023-07-29T09:22:18;5.25;;;3.70;;
16029;SDS011;34770;49.272;11.070;2023-07-29T09:24:45;8.30;;;3.90;;
16029;SDS011;34770;49.272;11.070;2023-07-29T09:27:26;5.07;;;3.75;;
16029;SDS011;34770;49.272;11.070;2023-07-29T09:29:55;7.28;;;4.20;;
16029;SDS011;34770;49.272;11.070;2023-07-29T09:32:21;5.05;;;4.53;;
16029;SDS011;34770;49.272;11.070;2023-07-29T09:34:48;4.18;;;3.78;;
16029;SDS011;34770;49.272;11.070;2023-07-29T09:37:20;6.03;;;4.20;;
16029;SDS011;34770;49.272;11.070;2023-07-29T09:39:46;5.70;;;3.95;;
16029;SDS011;34770;49.272;11.070;2023-07-29T09:42:19;7.25;;;4.28;;
16029;SDS011;34770;49.272;11.070;2023-07-29T09:44:46;3.80;;;3.50;;
16029;SDS011;34770;49.272;11.070;2023-07-29T09:47:21;5.00;;;3.50;;
16029;SDS011;34770;49.272;11.070;2023-07-29T09:49:47;4.45;;;3.33;;
16029;SDS011;34770;49.272;11.070;2023-07-29T09:52:16;4.20;;;3.20;;
16029;SDS011;34770;49.272;11.070;2023-07-29T09:54:43;5.70;;;3.65;;
16029;SDS011;34770;49.272;11.070;2023-07-29T09:57:09;5.25;;;3.15;;
16029;SDS011;34770;49.272;11.070;2023-07-29T09:59:42;4.47;;;3.40;;
16029;SDS011;34770;49.272;11.070;2023-07-29T10:02:09;4.35;;;2.83;;
16029;SDS011;34770;49.272;11.070;2023-07-29T10:04:43;4.15;;;2.92;;
16029;SDS011;34770;49.272;11.070;2023-07-29T10:07:11;3.15;;;2.72;;
16029;SDS011;34770;49.272;11.070;2023-07-29T10:09:37;3.22;;;2.92;;
16029;SDS011;34770;49.272;11.070;2023-07-29T10:12:04;3.67;;;2.65;;
16029;SDS011;34770;49.272;11.070;2023-07-29T10:14:31;4.63;;;3.17;;
16029;SDS011;34770;49.272;11.070;2023-07-29T10:16:57;5.05;;;3.00;;
16029;SDS011;34770;49.272;11.070;2023-07-29T10:19:24;4.80;;;3.10;;
16029;SDS011;34770;49.272;11.070;2023-07-29T10:21:50;4.45;;;2.92;;
16029;SDS011;34770;49.272;11.070;2023-07-29T10:24:18;4.50;;;2.90;;
16029;SDS011;34770;49.272;11.070;2023-07-29T10:26:47;2.65;;;2.45;;
16029;SDS011;34770;49.272;11.070;2023-07-29T10:29:15;4.65;;;3.15;;
16029;SDS011;34770;49.272;11.070;2023-07-29T10:31:45;4.43;;;3.00;;
16029;SDS011;34770;49.272;11.070;2023-07-29T10:34:11;3.85;;;3.35;;
16029;SDS011;34770;49.272;11.070;2023-07-29T10:36:38;4.97;;;2.67;;
16029;SDS011;34770;49.272;11.070;2023-07-29T10:39:06;2.72;;;2.50;;
16029;SDS011;34770;49.272;11.070;2023-07-29T10:41:54;3.28;;;2.58;;
16029;SDS011;34770;49.272;11.070;2023-07-29T10:47:13;4.70;;;2.70;;
16029;SDS011;34770;49.272;11.070;2023-07-29T10:49:42;3.03;;;2.28;;
16029;SDS011;34770;49.272;11.070;2023-07-29T10:52:12;2.63;;;2.40;;
16029;SDS011;34770;49.272;11.070;2023-07-29T10:54:45;2.38;;;2.05;;
16029;SDS011;34770;49.272;11.070;2023-07-29T10:57:20;2.00;;;1.80;;
16029;SDS011;34770;49.272;11.070;2023-07-29T10:59:59;3.63;;;1.80;;
16029;SDS011;34770;49.272;11.070;2023-07-29T11:02:32;3.45;;;2.22;;
16029;SDS011;34770;49.272;11.070;2023-07-29T11:05:04;3.92;;;2.00;;
16029;SDS011;34770;49.272;11.070;2023-07-29T11:07:46;1.70;;;1.60;;
16029;SDS011;34770;49.272;11.070;2023-07-29T11:10:13;2.75;;;2.08;;
16029;SDS011;34770;49.272;11.070;2023-07-29T11:20:08;1.85;;;1.70;;
16029;SDS011;34770;49.272;11.070;2023-07-29T11:22:34;2.65;;;2.00;;
16029;SDS011;34770;49.272;11.070;2023-07-29T11:25:01;2.47;;;1.65;;
16029;SDS011;34770;49.272;11.070;2023-07-29T11:27:26;1.90;;;1.80;;
16029;SDS011;34770;49.272;11.070;2023-07-29T11:30:02;1.75;;;1.65;;
16029;SDS011;34770;49.272;11.070;2023-07-29T11:32:35;1.60;;;1.50;;
16029;SDS011;34770;49.272;11.070;2023-07-29T11:35:05;4.30;;;2.13;;
16029;SDS011;34770;49.272;11.070;2023-07-29T11:37:32;2.58;;;1.50;;
16029;SDS011;34770;49.272;11.070;2023-07-29T11:40:02;1.80;;;1.50;;
16029;SDS011;34770;49.272;11.070;2023-07-29T11:42:27;1.95;;;1.33;;
16029;SDS011;34770;49.272;11.070;2023-07-29T11:44:56;1.33;;;1.23;;
16029;SDS011;34770;49.272;11.070;2023-07-29T11:47:23;4.55;;;1.98;;
16029;SDS011;34770;49.272;11.070;2023-07-29T11:49:48;2.95;;;1.48;;
16029;SDS011;34770;49.272;11.070;2023-07-29T11:52:14;4.07;;;1.98;;
16029;SDS011;34770;49.272;11.070;2023-07-29T11:54:43;1.55;;;1.45;;
16029;SDS011;34770;49.272;11.070;2023-07-29T11:57:09;2.13;;;1.52;;
16029;SDS011;34770;49.272;11.070;2023-07-29T11:59:35;4.22;;;1.50;;
16029;SDS011;34770;49.272;11.070;2023-07-29T12:02:03;2.15;;;1.40;;
16029;SDS011;34770;49.272;11.070;2023-07-29T12:04:32;2.08;;;1.52;;
16029;SDS011;34770;49.272;11.070;2023-07-29T12:06:58;2.05;;;1.73;;
16029;SDS011;34770;49.272;11.070;2023-07-29T12:09:25;2.08;;;1.65;;
16029;SDS011;34770;49.272;11.070;2023-07-29T12:11:52;1.60;;;1.50;;
16029;SDS011;34770;49.272;11.070;2023-07-29T12:14:17;2.35;;;1.50;;
16029;SDS011;34770;49.272;11.070;2023-07-29T12:16:43;2.30;;;1.70;;
16029;SDS011;34770;49.272;11.070;2023-07-29T12:19:11;1.88;;;1.48;;
16029;SDS011;34770;49.272;11.070;2023-07-29T12:21:38;2.80;;;1.67;;
16029;SDS011;34770;49.272;11.070;2023-07-29T12:24:05;4.22;;;1.40;;
16029;SDS011;34770;49.272;11.070;2023-07-29T12:26:30;1.60;;;1.50;;
16029;SDS011;34770;49.272;11.070;2023-07-29T12:28:56;1.45;;;1.35;;
16029;SDS011;34770;49.272;11.070;2023-07-29T12:31:21;2.42;;;1.55;;
16029;SDS011;34770;49.272;11.070;2023-07-29T12:33:55;2.83;;;1.45;;
16029;SDS011;34770;49.272;11.070;2023-07-29T12:36:22;2.15;;;1.65;;
16029;SDS011;34770;49.272;11.070;2023-07-29T12:38:47;2.28;;;1.80;;
16029;SDS011;34770;49.272;11.070;2023-07-29T12:41:12;1.92;;;1.40;;
16029;SDS011;34770;49.272;11.070;2023-07-29T12:43:38;3.45;;;1.30;;
16029;SDS011;34770;49.272;11.070;2023-07-29T12:46:03;1.60;;;1.50;;
16029;SDS011;34770;49.272;11.070;2023-07-29T12:48:28;2.00;;;1.50;;
16029;SDS011;34770;49.272;11.070;2023-07-29T12:50:54;3.38;;;1.70;;
16029;SDS011;34770;49.272;11.070;2023-07-29T12:53:19;3.03;;;1.38;;
16029;SDS011;34770;49.272;11.070;2023-07-29T12:55:44;1.65;;;1.30;;
16029;SDS011;34770;49.272;11.070;2023-07-29T12:58:10;1.70;;;1.42;;
16029;SDS011;34770;49.272;11.070;2023-07-29T13:00:35;2.45;;;1.40;;
16029;SDS011;34770;49.272;11.070;2023-07-29T13:03:00;2.38;;;1.30;;
16029;SDS011;34770;49.272;11.070;2023-07-29T13:05:26;1.58;;;1.40;;
16029;SDS011;34770;49.272;11.070;2023-07-29T13:07:51;1.27;;;1.15;;
16029;SDS011;34770;49.272;11.070;2023-07-29T13:10:17;2.65;;;1.55;;
16029;SDS011;34770;49.272;11.070;2023-07-29T13:12:42;2.15;;;1.17;;
16029;SDS011;34770;49.272;11.070;2023-07-29T13:15:07;1.50;;;1.40;;
16029;SDS011;34770;49.272;11.070;2023-07-29T13:17:33;2.17;;;1.45;;
16029;SDS011;34770;49.272;11.070;2023-07-29T13:19:59;1.73;;;1.33;;
16029;SDS011;34770;49.272;11.070;2023-07-29T13:22:24;1.30;;;1.20;;
16029;SDS011;34770;49.272;11.070;2023-07-29T13:24:50;2.20;;;1.55;;
16029;SDS011;34770;49.272;11.070;2023-07-29T13:27:15;2.90;;;1.40;;
16029;SDS011;34770;49.272;11.070;2023-07-29T13:29:41;1.30;;;1.20;;
16029;SDS011;34770;49.272;11.070;2023-07-29T13:32:06;2.25;;;1.67;;
16029;SDS011;34770;49.272;11.070;2023-07-29T13:34:32;2.13;;;1.50;;
16029;SDS011;34770;49.272;11.070;2023-07-29T13:36:59;2.42;;;1.45;;
16029;SDS011;34770;49.272;11.070;2023-07-29T13:39:24;1.70;;;1.45;;
16029;SDS011;34770;49.272;11.070;2023-07-29T13:41:50;1.20;;;1.10;;
16029;SDS011;34770;49.272;11.070;2023-07-29T13:44:15;1.52;;;1.30;;
16029;SDS011;34770;49.272;11.070;2023-07-29T13:46:40;1.27;;;1.15;;
16029;SDS011;34770;49.272;11.070;2023-07-29T13:49:05;2.13;;;1.40;;
16029;SDS011;34770;49.272;11.070;2023-07-29T13:51:31;1.42;;;1.33;;
16029;SDS011;34770;49.272;11.070;2023-07-29T13:53:56;3.55;;;1.50;;
16029;SDS011;34770;49.272;11.070;2023-07-29T13:56:22;1.98;;;1.75;;
16029;SDS011;34770;49.272;11.070;2023-07-29T13:58:47;1.50;;;1.20;;
16029;SDS011;34770;49.272;11.070;2023-07-29T14:01:13;1.90;;;1.38;;
16029;SDS011;34770;49.272;11.070;2023-07-29T14:03:38;1.85;;;1.38;;
16029;SDS011;34770;49.272;11.070;2023-07-29T14:06:03;3.03;;;1.45;;
16029;SDS011;34770;49.272;11.070;2023-07-29T14:08:29;1.50;;;1.40;;
16029;SDS011;34770;49.272;11.070;2023-07-29T14:10:54;1.50;;;1.40;;
16029;SDS011;34770;49.272;11.070;2023-07-29T14:13:19;3.08;;;1.23;;
16029;SDS011;34770;49.272;11.070;2023-07-29T14:15:45;1.50;;;1.38;;
16029;SDS011;34770;49.272;11.070;2023-07-29T14:18:10;1.27;;;1.17;;
16029;SDS011;34770;49.272;11.070;2023-07-29T14:20:35;1.83;;;1.30;;
16029;SDS011;34770;49.272;11.070;2023-07-29T14:23:01;1.60;;;1.30;;
16029;SDS011;34770;49.272;11.070;2023-07-29T14:25:26;1.15;;;1.05;;
16029;SDS011;34770;49.272;11.070;2023-07-29T14:27:52;2.10;;;1.50;;
16029;SDS011;34770;49.272;11.070;2023-07-29T14:30:17;3.17;;;1.45;;
16029;SDS011;34770;49.272;11.070;2023-07-29T14:32:43;1.25;;;1.08;;
16029;SDS011;34770;49.272;11.070;2023-07-29T14:35:08;1.45;;;1.17;;
16029;SDS011;34770;49.272;11.070;2023-07-29T14:37:34;1.20;;;1.10;;
16029;SDS011;34770;49.272;11.070;2023-07-29T14:40:00;5.90;;;1.83;;
16029;SDS011;34770;49.272;11.070;2023-07-29T14:42:26;2.03;;;1.30;;
16029;SDS011;34770;49.272;11.070;2023-07-29T14:44:52;1.55;;;1.30;;
16029;SDS011;34770;49.272;11.070;2023-07-29T14:47:18;1.30;;;1.20;;